• Join FlightAware (Why Join?)
  • Login
  • US Flag 
09:09AM EDT


 

Airport Tracker/Info


-or-


 

Live Flight TrackerFlight Track Log ✈ BJS339 ✈ 25-Dec-2013 ✈ KVNY - MMSD / SJD

Flight Track Log - Related Links

Times and Time Zones

All times are in EST time to prevent confusion due to time zone crossing. See the BJS339 flight status page for this flight to view local times or setup timezone preferences in your user account.

Time Position Orientation Groundspeed Altitude Reporting Facility
EST Latitude Longitude Course Direction KTS MPH feet Rate Location/Type
01:21PM 34.2500 -118.5000 20° North 195 224 3,500  Level Southern California TRACON
01:23PM 34.3731 -118.4447 20° North 246 283 11,800 3,000 Climbing Los Angeles Center
01:24PM 34.4242 -118.3686 51° Northeast 289 333 13,800 1,980 Climbing Los Angeles Center
01:25PM 34.4800 -118.2731 55° Northeast 343 395 15,900 1,980 Climbing Los Angeles Center
01:26PM 34.4331 -118.1636 117° Southeast 389 448 18,000 2,280 Climbing Los Angeles Center
01:27PM 34.3556 -118.0672 134° Southeast 396 456 20,600 2,760 Climbing Los Angeles Center
01:28PM 34.2603 -117.9481 134° Southeast 408 470 23,700 2,580 Climbing Los Angeles Center
01:29PM 34.1797 -117.8478 134° Southeast 416 479 25,900 1,860 Climbing Los Angeles Center
01:30PM 34.0950 -117.7447 135° Southeast 426 490 27,600 1,500 Climbing Los Angeles Center
01:31PM 34.0108 -117.6375 133° Southeast 434 499 29,000 1,260 Climbing Los Angeles Center
01:32PM 33.9206 -117.5275 135° Southeast 450 518 30,300 1,080 Climbing Los Angeles Center
01:34PM 33.8286 -117.4133 134° Southeast 467 537 31,300 960 Climbing Los Angeles Center
01:35PM 33.7322 -117.2972 135° Southeast 481 554 32,300 960 Climbing Los Angeles Center
01:36PM 33.6356 -117.1794 135° Southeast 490 564 33,300 900 Climbing Los Angeles Center
01:37PM 33.5356 -117.0581 135° Southeast 497 572 34,200 900 Climbing Los Angeles Center
01:38PM 33.4378 -116.9400 135° Southeast 499 574 35,200 1,020 Climbing Los Angeles Center
01:39PM 33.3189 -116.7969 135° Southeast 503 579 36,400 1,020 Climbing Los Angeles Center
01:40PM 33.2200 -116.6806 135° Southeast 501 577 37,400 960 Climbing Los Angeles Center
01:41PM 33.1281 -116.5586 132° Southeast 497 572 38,400 720 Climbing Los Angeles Center
01:42PM 33.0558 -116.4183 122° Southeast 492 566 39,000 240 Climbing Los Angeles Center
01:43PM 32.9858 -116.2814 121° Southeast 503 579 39,000  Level Los Angeles Center
01:44PM 32.9031 -116.1269 123° Southeast 510 587 39,000  Level Los Angeles Center
01:45PM 32.8267 -115.9822 122° Southeast 513 590 39,000  Level Los Angeles Center
01:46PM 32.7497 -115.8386 122° Southeast 513 590 39,000  Level Los Angeles Center
01:47PM 32.6744 -115.6956 122° Southeast 512 589 39,000  Level Los Angeles Center
01:48PM 32.5997 -115.5522 122° Southeast 511 588 39,000  Level Los Angeles Center
01:50PM 32.3974 -115.5103 170° South  Level FlightAware Approximate
01:57PM 31.6293 -114.9820 150° Southeast  Level Estimated
01:58PM 31.5145 -114.9182 155° Southeast  Level FlightAware Approximate
01:59PM 31.3997 -114.8545 155° Southeast  Level FlightAware Approximate
02:00PM 31.2848 -114.7910 155° Southeast  Level FlightAware Approximate
02:01PM 31.1699 -114.7276 155° Southeast  Level FlightAware Approximate
02:02PM 31.0602 -114.6530 149° Southeast  Level Estimated
02:03PM 30.9509 -114.5773 149° Southeast  Level FlightAware Approximate
02:04PM 30.8416 -114.5019 149° Southeast  Level FlightAware Approximate
02:05PM 30.7323 -114.4266 149° Southeast  Level FlightAware Approximate
02:06PM 30.6229 -114.3515 149° Southeast  Level FlightAware Approximate
02:07PM 30.5135 -114.2766 149° Southeast  Level FlightAware Approximate
02:08PM 30.4040 -114.2018 149° Southeast  Level FlightAware Approximate
02:09PM 30.2945 -114.1272 150° Southeast  Level FlightAware Approximate
02:10PM 30.1850 -114.0527 150° Southeast  Level FlightAware Approximate
02:11PM 30.0754 -113.9785 150° Southeast  Level FlightAware Approximate
02:12PM 29.9651 -113.9056 149° Southeast  Level Estimated
02:13PM 29.8558 -113.8310 149° Southeast  Level FlightAware Approximate
02:14PM 29.7465 -113.7565 149° Southeast  Level FlightAware Approximate
02:15PM 29.6371 -113.6821 149° Southeast  Level FlightAware Approximate
02:16PM 29.5277 -113.6079 149° Southeast  Level FlightAware Approximate
02:17PM 29.4171 -113.5361 150° Southeast  Level Estimated
02:18PM 29.3070 -113.4635 150° Southeast  Level FlightAware Approximate
02:19PM 29.1968 -113.3911 150° Southeast  Level FlightAware Approximate
02:20PM 29.0861 -113.3197 150° Southeast  Level Estimated
02:21PM 28.9760 -113.2473 150° Southeast  Level FlightAware Approximate
02:22PM 28.8658 -113.1751 150° Southeast  Level FlightAware Approximate
02:23PM 28.7556 -113.1030 150° Southeast  Level FlightAware Approximate
02:24PM 28.6453 -113.0311 150° Southeast  Level FlightAware Approximate
02:25PM 28.5350 -112.9594 150° Southeast  Level FlightAware Approximate
02:26PM 28.4247 -112.8878 150° Southeast  Level FlightAware Approximate
02:27PM 28.3143 -112.8163 150° Southeast  Level FlightAware Approximate
02:28PM 28.2039 -112.7450 150° Southeast  Level FlightAware Approximate
02:29PM 28.0934 -112.6738 150° Southeast  Level FlightAware Approximate
02:30PM 27.9829 -112.6028 150° Southeast  Level FlightAware Approximate
02:31PM 27.8724 -112.5320 150° Southeast  Level FlightAware Approximate
02:32PM 27.7619 -112.4612 150° Southeast  Level FlightAware Approximate
02:33PM 27.6513 -112.3907 151° Southeast  Level FlightAware Approximate
02:34PM 27.5406 -112.3202 151° Southeast  Level FlightAware Approximate
02:35PM 27.4300 -112.2499 151° Southeast  Level FlightAware Approximate
02:36PM 27.3193 -112.1798 151° Southeast  Level FlightAware Approximate
02:37PM 27.2085 -112.1098 151° Southeast  Level FlightAware Approximate
02:38PM 27.0969 -112.0415 150° Southeast  Level Estimated
02:39PM 26.9876 -111.9689 149° Southeast  Level FlightAware Approximate
02:40PM 26.8783 -111.8964 149° Southeast  Level FlightAware Approximate
02:41PM 26.7665 -111.8288 152° Southeast  Level Estimated
02:42PM 26.6546 -111.7614 151° Southeast  Level Estimated
02:43PM 26.5438 -111.6919 151° Southeast  Level FlightAware Approximate
02:44PM 26.4330 -111.6226 151° Southeast  Level FlightAware Approximate
02:45PM 26.3210 -111.5557 151° Southeast  Level Estimated
02:46PM 26.2103 -111.4861 151° Southeast  Level FlightAware Approximate
02:47PM 26.0997 -111.4166 151° Southeast  Level FlightAware Approximate
02:48PM 25.9890 -111.3473 151° Southeast  Level FlightAware Approximate
02:49PM 25.8767 -111.2813 130° Southeast  Level Estimated
02:50PM 25.8003 -111.1685 127° Southeast  Level FlightAware Approximate
02:51PM 25.7238 -111.0559 127° Southeast  Level FlightAware Approximate
02:52PM 25.6473 -110.9434 127° Southeast  Level FlightAware Approximate
02:53PM 25.5707 -110.8310 127° Southeast  Level FlightAware Approximate
02:54PM 25.4939 -110.7188 127° Southeast  Level FlightAware Approximate
02:55PM 25.4171 -110.6068 127° Southeast  Level FlightAware Approximate
02:56PM 25.2976 -110.5592 130° Southeast  Level Estimated
02:57PM 25.2413 -110.4333 116° Southeast  Level FlightAware Approximate
02:58PM 25.1201 -110.3913 130° Southeast  Level Estimated
02:59PM 24.9989 -110.3494 131° Southeast  Level Estimated
03:00PM 24.9921 -110.2094 93° East  Level FlightAware Approximate
03:01PM 24.8687 -110.1762 129° Southeast  Level Estimated
03:02PM 24.8448 -110.0387 101° East  Level FlightAware Approximate
03:03PM 24.7196 -110.0149 146° Southeast  Level Estimated
03:04PM 24.5944 -109.9912 195° South  Level Estimated
03:05PM 24.4692 -109.9675 180° South  Level Estimated
03:06PM 24.3440 -109.9439 113° Southeast  Level Estimated
03:07PM 24.3326 -109.8050 95° East  Level FlightAware Approximate
03:08PM 24.3211 -109.6662 95° East  Level FlightAware Approximate
03:09PM 24.1942 -109.6722 219° Southwest  Level Estimated
03:10PM 24.0722 -109.7111 196° South  Level FlightAware Approximate
03:11PM 23.9502 -109.7499 196° South  Level FlightAware Approximate
03:12PM 23.8278 -109.7871 196° South  Level FlightAware Approximate
03:13PM 23.8586 -109.7425 175° South  Level FlightAware Approximate
03:14PM 23.7320 -109.7333 180° South  Level FlightAware Approximate
03:15PM 23.6049 -109.7333 180° South  Level FlightAware Approximate
03:16PM 23.4782 -109.7262 175° South  Level FlightAware Approximate
03:17PM 23.3516 -109.7167 180° South  Level FlightAware Approximate
03:18PM 23.2246 -109.7167 180° South  Level FlightAware Approximate
03:19PM 23.1518 -109.7210 180° South  Level Estimated
03:20PM 23.1518 -109.7210 180° South  Level Estimated
03:21PM 23.1518 -109.7210 180° South  Level Estimated
03:22PM 23.1518 -109.7210 180° South  Level Estimated
03:23PM 23.1518 -109.7210 180° South  Level Estimated
03:24PM 23.1518 -109.7210 180° South  Level Estimated
03:25PM 23.1518 -109.7210 180° South  Level Estimated
03:26PM 23.1518 -109.7210 180° South  Level Estimated
03:27PM 23.1518 -109.7210 180° South  Level Estimated
03:28PM 23.1518 -109.7210 180° South  Level Estimated
03:29PM 23.1518 -109.7210 180° South  Level Estimated
03:30PM 23.1518 -109.7210 180° South  Level Estimated
03:31PM 23.1518 -109.7210 180° South  Level Estimated
03:32PM 23.1518 -109.7210 180° South  Level Estimated
03:33PM 23.1518 -109.7210 180° South  Level Estimated